Humidity-temperature Sensor

Selected Measurement Type: Air Temperature

 
Air Temperature [°C]     6 entries per hour
Showing data from 8/13/2020 (00:00:00 Z) to 8/6/2020 (00:01:00 Z)
Previous Next [ Day | 3-Days | 7-Days ]
First Last
Prev [ Day | 3-Days | 7-Days ] Next
First Last

Start Time:     :
End Time:     :     
Time (in GMT) :00 :50 :40 :30 :20 :10
Previous Next [ Day | 3-Days | 7-Days ]
First Last
Prev [ Day | 3-Days | 7-Days ] Next
First Last


123 => good data
MM => data is determined as missing
-- => data not received/configured
Back to Top Back to Top
8/13/2020 00:00 to 23:10 24.68 24.53 24.62 24.79 24.79 24.51
8/12/2020 23:00 to 22:10 24.71 24.73 24.80 24.70 24.59 24.77
8/12/2020 22:00 to 21:10 24.71 24.67 24.64 24.79 24.61 24.63
8/12/2020 21:00 to 20:10 24.66 24.55 24.69 24.55 24.57 24.58
8/12/2020 20:00 to 19:10 24.50 24.48 24.62 24.76 25.02 24.75
8/12/2020 19:00 to 18:10 24.89 24.75 24.69 24.71 24.71 24.80
8/12/2020 18:00 to 17:10 24.80 24.74 24.85 24.87 24.44 24.59
8/12/2020 17:00 to 16:10 24.54 24.69 24.62 24.46 24.36 24.32
8/12/2020 16:00 to 15:10 24.57 24.82 24.82 24.74 24.85 24.80
8/12/2020 15:00 to 14:10 24.75 24.87 24.89 24.86 24.89 24.92
8/12/2020 14:00 to 13:10 24.88 24.73 24.67 24.67 24.41 24.47
8/12/2020 13:00 to 12:10 24.43 24.45 24.59 24.63 24.54 24.59
8/12/2020 12:00 to 11:10 24.53 24.44 24.29 24.15 24.10 24.41
8/12/2020 11:00 to 10:10 24.37 24.36 24.36 24.48 24.41 24.42
8/12/2020 10:00 to 9:10 24.20 24.32 24.40 24.14 24.35 24.20
8/12/2020 09:00 to 8:10 24.29 24.10 24.17 24.13 24.15 24.11
8/12/2020 08:00 to 7:10 24.10 24.33 24.49 24.48 24.38 24.30
8/12/2020 07:00 to 6:10 24.44 24.48 24.37 24.44 24.32 24.41
8/12/2020 06:00 to 5:10 24.33 24.41 24.53 24.48 24.54 24.39
8/12/2020 05:00 to 4:10 24.35 24.44 24.29 24.42 24.30 24.60
8/12/2020 04:00 to 3:10 24.58 24.42 24.50 24.45 24.60 24.79
8/12/2020 03:00 to 2:10 24.80 24.49 24.57 24.59 24.66 24.65
8/12/2020 02:00 to 1:10 24.70 24.64 24.70 24.69 24.49 24.71
8/12/2020 01:00 to 0:10 24.78 24.78 24.84 24.75 24.83 24.88
8/12/2020 00:00 to 23:10 24.91 24.83 24.79 24.81 24.96 24.70
8/11/2020 23:00 to 22:10 24.95 24.71 24.47 24.41 24.53 24.43
8/11/2020 22:00 to 21:10 24.21 23.99 24.20 24.04 24.22 24.34
8/11/2020 21:00 to 20:10 24.57 24.58 24.61 24.47 24.54 24.58
8/11/2020 20:00 to 19:10 24.55 24.65 24.81 24.83 24.77 24.55
8/11/2020 19:00 to 18:10 24.48 24.56 24.44 24.64 24.31 24.31
8/11/2020 18:00 to 17:10 24.37 24.36 24.69 24.45 24.44 24.42
8/11/2020 17:00 to 16:10 24.47 24.47 24.59 24.62 24.62 24.63
8/11/2020 16:00 to 15:10 24.63 24.46 24.69 24.59 24.50 24.51
8/11/2020 15:00 to 14:10 24.66 24.55 24.56 24.48 24.38 24.25
8/11/2020 14:00 to 13:10 23.99 24.06 24.11 23.96 23.89 23.71
8/11/2020 13:00 to 12:10 23.64 23.60 23.05 23.48 23.53 23.85
8/11/2020 12:00 to 11:10 23.61 23.74 24.17 24.10 24.44 24.57
8/11/2020 11:00 to 10:10 24.56 24.44 24.49 24.49 24.63 24.52
8/11/2020 10:00 to 9:10 24.59 24.46 24.57 24.44 24.55 24.44
8/11/2020 09:00 to 8:10 24.58 24.52 24.53 24.58 24.50 24.54
8/11/2020 08:00 to 7:10 24.71 24.72 24.54 24.71 24.61 24.73
8/11/2020 07:00 to 6:10 24.65 24.62 24.53 24.74 24.58 24.64
8/11/2020 06:00 to 5:10 24.55 24.63 24.41 24.43 24.42 24.55
8/11/2020 05:00 to 4:10 24.69 24.50 24.69 24.54 24.54 24.49
8/11/2020 04:00 to 3:10 24.66 24.46 24.56 24.50 24.59 24.54
8/11/2020 03:00 to 2:10 24.53 24.61 24.49 24.59 24.59 24.57
8/11/2020 02:00 to 1:10 24.74 24.54 24.56 24.53 24.62 24.57
8/11/2020 01:00 to 0:10 24.49 24.48 24.44 24.57 24.43 24.50
8/11/2020 00:00 to 23:10 24.35 24.35 24.58 24.66 24.58 24.72
8/10/2020 23:00 to 22:10 24.65 24.91 24.57 24.41 24.14 24.40
8/10/2020 22:00 to 21:10 24.36 24.37 24.47 24.38 24.50 24.43
8/10/2020 21:00 to 20:10 24.59 24.53 24.71 24.55 24.58 24.50
8/10/2020 20:00 to 19:10 24.44 24.45 24.62 24.36 23.57 23.55
8/10/2020 19:00 to 18:10 23.45 23.43 23.42 23.34 23.33 23.45
8/10/2020 18:00 to 17:10 23.71 23.52 23.56 23.92 24.14 24.73
8/10/2020 17:00 to 16:10 24.69 24.73 24.52 24.49 24.47 24.64
8/10/2020 16:00 to 15:10 24.68 24.66 24.75 24.61 24.52 24.56
8/10/2020 15:00 to 14:10 24.56 24.55 24.45 24.60 24.47 24.51
8/10/2020 14:00 to 13:10 24.42 24.41 24.33 24.34 24.34 24.40
8/10/2020 13:00 to 12:10 24.25 24.31 24.31 24.32 24.35 24.34
8/10/2020 12:00 to 11:10 24.32 24.40 24.32 24.28 24.39 24.31
8/10/2020 11:00 to 10:10 24.31 24.29 24.26 24.25 24.25 24.23
8/10/2020 10:00 to 9:10 24.25 24.24 24.17 24.21 24.18 24.35
8/10/2020 09:00 to 8:10 24.16 24.27 24.17 24.19 24.42 24.37
8/10/2020 08:00 to 7:10 24.49 24.22 24.33 24.41 24.37 24.21
8/10/2020 07:00 to 6:10 24.36 24.39 24.45 24.49 24.36 24.46
8/10/2020 06:00 to 5:10 24.53 24.39 24.39 24.53 24.59 24.57
8/10/2020 05:00 to 4:10 24.50 24.50 24.57 24.51 24.55 24.54
8/10/2020 04:00 to 3:10 24.46 24.54 24.69 24.55 24.50 24.72
8/10/2020 03:00 to 2:10 24.45 24.59 24.57 24.52 24.63 24.60
8/10/2020 02:00 to 1:10 24.54 24.64 24.53 24.60 24.66 24.67
8/10/2020 01:00 to 0:10 24.73 24.78 24.87 24.86 24.92 24.96
8/10/2020 00:00 to 23:10 24.84 24.87 24.75 24.72 24.81 24.73
8/9/2020 23:00 to 22:10 24.82 24.78 24.88 24.85 24.71 24.79
8/9/2020 22:00 to 21:10 24.80 24.85 24.71 24.75 24.86 24.82
8/9/2020 21:00 to 20:10 24.86 24.80 24.98 24.94 24.62 24.62
8/9/2020 20:00 to 19:10 24.82 24.70 24.89 24.77 24.83 24.80
8/9/2020 19:00 to 18:10 24.80 24.86 24.63 24.54 24.57 24.50
8/9/2020 18:00 to 17:10 24.45 24.49 24.52 24.51 24.52 24.51
8/9/2020 17:00 to 16:10 24.51 24.36 24.30 24.46 24.23 24.31
8/9/2020 16:00 to 15:10 24.51 24.66 24.85 24.74 24.59 24.73
8/9/2020 15:00 to 14:10 24.86 24.78 24.74 24.75 24.67 24.44
8/9/2020 14:00 to 13:10 24.61 24.77 24.76 24.64 24.72 24.86
8/9/2020 13:00 to 12:10 24.70 24.52 24.62 24.51 24.53 24.63
8/9/2020 12:00 to 11:10 24.41 24.39 24.52 24.51 24.35 24.39
8/9/2020 11:00 to 10:10 24.43 24.24 24.18 24.17 24.11 24.24
8/9/2020 10:00 to 9:10 24.25 24.04 24.21 24.20 24.53 24.31
8/9/2020 09:00 to 8:10 24.52 24.45 24.42 24.41 24.37 24.47
8/9/2020 08:00 to 7:10 24.49 24.35 24.21 24.21 23.92 23.77
8/9/2020 07:00 to 6:10 24.07 23.89 23.75 24.35 24.44 24.44
8/9/2020 06:00 to 5:10 24.32 24.49 24.48 24.62 24.56 24.46
8/9/2020 05:00 to 4:10 24.45 24.30 24.44 24.52 24.39 24.47
8/9/2020 04:00 to 3:10 24.45 24.35 24.32 24.42 24.41 24.66
8/9/2020 03:00 to 2:10 24.56 24.56 24.49 24.44 24.46 24.60
8/9/2020 02:00 to 1:10 24.44 24.48 24.47 24.51 24.45 24.56
8/9/2020 01:00 to 0:10 24.55 24.58 24.69 24.66 24.55 24.44
8/9/2020 00:00 to 23:10 24.51 24.42 24.59 24.48 24.59 24.69
8/8/2020 23:00 to 22:10 24.70 24.69 24.71 24.58 24.52 24.56
8/8/2020 22:00 to 21:10 24.73 24.65 24.72 24.64 24.61 24.41
8/8/2020 21:00 to 20:10 24.62 24.60 24.57 24.59 24.53 24.57
8/8/2020 20:00 to 19:10 24.60 24.54 24.50 24.52 24.47 24.50
8/8/2020 19:00 to 18:10 24.60 24.61 24.68 24.45 24.42 24.53
8/8/2020 18:00 to 17:10 24.50 24.59 24.72 24.76 24.62 24.53
8/8/2020 17:00 to 16:10 24.88 24.98 24.76 24.91 24.78 24.90
8/8/2020 16:00 to 15:10 24.92 24.57 24.58 24.74 24.53 24.57
8/8/2020 15:00 to 14:10 24.51 24.34 24.41 24.29 24.37 24.38
8/8/2020 14:00 to 13:10 24.29 24.17 24.16 24.15 23.75 23.37
8/8/2020 13:00 to 12:10 23.75 23.78 23.84 24.26 24.04 23.96
8/8/2020 12:00 to 11:10 23.94 24.08 24.00 24.10 24.07 24.04
8/8/2020 11:00 to 10:10 24.11 24.16 24.12 24.06 24.16 24.14
8/8/2020 10:00 to 9:10 24.10 24.10 24.06 24.03 24.11 24.26
8/8/2020 09:00 to 8:10 24.04 24.08 24.15 24.19 24.11 24.25
8/8/2020 08:00 to 7:10 24.27 24.14 24.12 24.18 24.35 24.22
8/8/2020 07:00 to 6:10 24.19 24.25 24.23 24.41 24.28 24.41
8/8/2020 06:00 to 5:10 24.28 24.44 24.44 24.44 24.38 24.45
8/8/2020 05:00 to 4:10 24.51 24.39 24.43 24.40 24.51 24.51
8/8/2020 04:00 to 3:10 24.55 24.66 24.45 24.64 24.48 24.53
8/8/2020 03:00 to 2:10 24.47 24.47 24.67 24.53 24.57 24.58
8/8/2020 02:00 to 1:10 24.49 24.42 24.64 24.57 24.64 24.60
8/8/2020 01:00 to 0:10 24.52 24.54 24.51 24.46 24.64 24.65
8/8/2020 00:00 to 23:10 24.64 24.45 24.79 24.50 24.66 24.61
8/7/2020 23:00 to 22:10 24.59 24.56 24.70 24.92 24.62 24.74
8/7/2020 22:00 to 21:10 24.45 24.48 24.40 24.46 24.49 24.84
8/7/2020 21:00 to 20:10 24.70 24.61 24.50 24.51 24.40 24.44
8/7/2020 20:00 to 19:10 24.26 24.63 24.66 24.37 24.44 24.46
8/7/2020 19:00 to 18:10 24.60 24.52 24.57 24.34 24.44 24.44
8/7/2020 18:00 to 17:10 24.54 24.53 24.64 24.64 24.68 24.67
8/7/2020 17:00 to 16:10 24.57 24.55 24.46 24.46 24.47 24.71
8/7/2020 16:00 to 15:10 24.80 24.51 24.63 24.36 24.49 24.14
8/7/2020 15:00 to 14:10 24.18 23.95 23.79 23.75 24.02 23.84
8/7/2020 14:00 to 13:10 23.61 23.75 23.68 23.99 24.23 24.21
8/7/2020 13:00 to 12:10 24.03 24.19 24.18 24.16 23.93 24.05
8/7/2020 12:00 to 11:10 24.10 24.03 24.22 24.04 24.14 24.02
8/7/2020 11:00 to 10:10 23.99 24.09 24.01 24.16 23.96 24.16
8/7/2020 10:00 to 9:10 24.04 23.91 24.11 23.79 24.06 24.02
8/7/2020 09:00 to 8:10 24.08 24.47 24.15 23.94 24.22 24.31
8/7/2020 08:00 to 7:10 24.09 24.22 24.20 24.18 24.15 24.26
8/7/2020 07:00 to 6:10 24.19 24.32 24.14 24.22 24.23 24.27
8/7/2020 06:00 to 5:10 24.27 24.13 24.21 24.06 24.30 24.23
8/7/2020 05:00 to 4:10 24.26 24.20 24.17 24.11 24.28 24.23
8/7/2020 04:00 to 3:10 24.32 24.26 24.37 24.28 24.41 24.38
8/7/2020 03:00 to 2:10 24.25 24.17 24.25 24.31 24.36 24.42
8/7/2020 02:00 to 1:10 24.37 24.26 24.24 24.39 24.48 24.44
8/7/2020 01:00 to 0:10 24.48 24.48 24.57 24.49 24.62 24.45
8/7/2020 00:00 to 23:10 24.58 24.56 24.53 24.29 24.45 24.28
8/6/2020 23:00 to 22:10 24.37 24.22 24.33 24.30 24.04 23.94
8/6/2020 22:00 to 21:10 23.95 24.05 24.36 24.05 24.12 24.35
8/6/2020 21:00 to 20:10 24.28 24.48 24.64 24.62 24.50 24.47
8/6/2020 20:00 to 19:10 24.26 24.13 23.90 24.30 24.22 24.24
8/6/2020 19:00 to 18:10 24.03 24.09 23.93 23.98 24.02 24.05
8/6/2020 18:00 to 17:10 24.00 24.23 24.21 24.23 24.75 24.44
8/6/2020 17:00 to 16:10 24.57 23.93 23.95 24.38 24.42 24.49
8/6/2020 16:00 to 15:10 24.37 23.91 24.07 24.09 23.74 23.70
8/6/2020 15:00 to 14:10 23.39 23.22 22.60 22.83 22.82 24.04
8/6/2020 14:00 to 13:10 23.44 23.95 23.72 23.91 23.98 23.66
8/6/2020 13:00 to 12:10 23.34 23.87 23.93 23.76 23.79 23.80
8/6/2020 12:00 to 11:10 23.71 24.58 24.13 24.43 24.49 24.44
8/6/2020 11:00 to 10:10 24.11 24.06 24.24 24.13 24.24 24.18
8/6/2020 10:00 to 9:10 24.34 24.27 24.28 24.28 24.27 24.10
8/6/2020 09:00 to 8:10 24.09 24.26 24.27 24.35 24.24 24.37
8/6/2020 08:00 to 7:10 24.22 24.24 24.36 24.40 24.37 24.45
8/6/2020 07:00 to 6:10 24.33 23.96 24.15 24.14 24.45 24.27
8/6/2020 06:00 to 5:10 24.25 24.46 24.47 24.35 24.54 24.32
8/6/2020 05:00 to 4:10 24.44 24.37 24.39 24.43 24.29 24.28
8/6/2020 04:00 to 3:10 24.46 24.43 24.35 24.46 24.45 24.31
8/6/2020 03:00 to 2:10 24.29 24.33 24.40 24.40 24.41 24.31
8/6/2020 02:00 to 1:10 24.40 24.48 24.44 24.40 24.44 24.36
8/6/2020 01:00 to 0:10 24.45 24.48 24.42 24.57 24.39 24.80